Time,TemperatureF,DewpointF,PressureIn,WindDirection,WindDirectionDegrees,WindSpeedMPH,WindSpeedGustMPH,Humidity,HourlyPrecipIn,Conditions,Clouds,dailyrainin,SoftwareType,DateUTC
2013-05-13 00:00:00,35.3,30.4,30.05,South,175,0.0,0.0,82,0.00,,---,0.00,VWS V14.01,2013-05-13 05:00:00,
2013-05-13 00:30:00,35.6,30.7,30.05,South,175,0.0,0.0,82,0.00,,---,0.00,VWS V14.01,2013-05-13 05:30:00,
2013-05-13 01:00:00,36.2,31.8,30.06,SE,132,0.0,0.0,84,0.00,,---,0.00,VWS V14.01,2013-05-13 06:00:00,
2013-05-13 01:30:00,35.7,31.6,30.05,ESE,112,0.0,0.0,85,0.00,,---,0.00,VWS V14.01,2013-05-13 06:30:00,
2013-05-13 02:00:00,34.7,31.2,30.06,ESE,112,0.0,0.0,87,0.00,,---,0.00,VWS V14.01,2013-05-13 07:00:00,
2013-05-13 02:30:00,33.8,30.9,30.06,ESE,112,0.0,0.0,89,0.00,,---,0.00,VWS V14.01,2013-05-13 07:30:00,
2013-05-13 03:00:00,33.4,30.8,30.06,ESE,112,0.0,0.0,90,0.00,,---,0.00,VWS V14.01,2013-05-13 08:00:00,
2013-05-13 03:30:00,33.4,31.1,30.06,ESE,112,0.0,0.0,91,0.00,,---,0.00,VWS V14.01,2013-05-13 08:30:00,
2013-05-13 04:00:00,32.1,29.8,30.05,ESE,112,0.0,0.0,91,0.00,,---,0.00,VWS V14.01,2013-05-13 09:00:00,
2013-05-13 04:30:00,31.8,29.8,30.05,ESE,112,0.0,0.0,92,0.00,,---,0.00,VWS V14.01,2013-05-13 09:30:00,
2013-05-13 05:00:00,31.1,29.0,30.06,ESE,112,0.0,0.0,92,0.00,,---,0.00,VWS V14.01,2013-05-13 10:00:00,
2013-05-13 05:30:00,30.2,28.2,30.06,ESE,112,0.0,0.0,92,0.00,,---,0.00,VWS V14.01,2013-05-13 10:30:00,
2013-05-13 06:00:00,29.8,28.0,30.07,ESE,112,0.0,0.0,93,0.00,,---,0.00,VWS V14.01,2013-05-13 11:00:00,
2013-05-13 06:30:00,31.3,29.8,30.08,ESE,112,0.0,0.0,94,0.00,,---,0.00,VWS V14.01,2013-05-13 11:30:00,
2013-05-13 07:00:00,34.3,32.8,30.09,ESE,112,0.0,0.0,94,0.00,,---,0.00,VWS V14.01,2013-05-13 12:00:00,
2013-05-13 07:30:00,36.8,35.0,30.09,ESE,112,0.0,0.0,93,0.00,,---,0.00,VWS V14.01,2013-05-13 12:30:00,
2013-05-13 08:00:00,40.9,33.6,30.10,WSW,257,0.0,1.0,75,0.00,,---,0.00,VWS V14.01,2013-05-13 13:00:00,
2013-05-13 08:30:00,43.9,32.5,30.10,West,275,0.0,4.0,64,0.00,,---,0.00,VWS V14.01,2013-05-13 13:30:00,
2013-05-13 09:00:00,45.3,30.5,30.11,NW,304,1.0,5.0,56,0.00,,---,0.00,VWS V14.01,2013-05-13 14:00:00,
2013-05-13 09:30:00,46.7,29.1,30.10,NW,311,2.0,3.0,50,0.00,,---,0.00,VWS V14.01,2013-05-13 14:30:00,
2013-05-13 10:00:00,48.1,28.3,30.10,West,262,0.0,3.0,46,0.00,,---,0.00,VWS V14.01,2013-05-13 15:00:00,
2013-05-13 10:30:00,49.9,30.5,30.10,NW,324,0.0,4.0,47,0.00,,---,0.00,VWS V14.01,2013-05-13 15:30:00,
2013-05-13 11:00:00,50.7,31.2,30.10,South,189,1.0,6.0,47,0.00,,---,0.00,VWS V14.01,2013-05-13 16:00:00,
2013-05-13 11:30:00,50.8,28.5,30.10,NNW,330,0.0,9.0,42,0.00,,---,0.00,VWS V14.01,2013-05-13 16:30:00,
2013-05-13 12:00:00,51.7,28.2,30.09,SW,214,0.0,8.0,40,0.00,,---,0.00,VWS V14.01,2013-05-13 17:00:00,
2013-05-13 12:30:00,53.1,31.2,30.08,NNE,26,1.0,14.0,43,0.00,,---,0.00,VWS V14.01,2013-05-13 17:30:00,
2013-05-13 13:00:00,54.8,30.3,30.06,NW,314,2.0,6.0,39,0.00,,---,0.00,VWS V14.01,2013-05-13 18:00:00,
2013-05-13 13:30:00,55.8,25.6,30.05,NNW,328,7.0,14.0,31,0.00,,---,0.00,VWS V14.01,2013-05-13 18:30:00,
2013-05-13 14:00:00,57.0,28.9,30.04,North,355,0.0,12.0,34,0.00,,---,0.00,VWS V14.01,2013-05-13 19:00:00,
2013-05-13 14:30:00,55.1,35.2,30.04,ESE,107,6.0,17.0,47,0.00,,---,0.00,VWS V14.01,2013-05-13 19:30:00,
2013-05-13 15:00:00,54.1,33.8,30.03,SE,134,0.0,15.0,46,0.00,,---,0.00,VWS V14.01,2013-05-13 20:00:00,
2013-05-13 15:30:00,53.5,33.2,30.02,SSE,150,5.0,14.0,46,0.00,,---,0.00,VWS V14.01,2013-05-13 20:30:00,
2013-05-13 16:00:00,52.9,32.2,30.02,ESE,119,5.0,15.0,45,0.00,,---,0.00,VWS V14.01,2013-05-13 21:00:00,
2013-05-13 16:30:00,50.8,30.8,30.01,ESE,119,3.0,14.0,46,0.00,,---,0.00,VWS V14.01,2013-05-13 21:30:00,
2013-05-13 17:00:00,49.6,30.2,30.01,ESE,119,9.0,16.0,47,0.00,,---,0.00,VWS V14.01,2013-05-13 22:00:00,
2013-05-13 17:30:00,48.1,29.9,30.01,SE,133,4.0,14.0,49,0.00,,---,0.00,VWS V14.01,2013-05-13 22:30:00,
2013-05-13 18:00:00,46.7,29.5,30.02,SSE,162,0.0,13.0,51,0.00,,---,0.00,VWS V14.01,2013-05-13 23:00:00,
2013-05-13 18:30:00,45.6,29.0,30.00,SE,146,4.0,11.0,52,0.00,,---,0.00,VWS V14.01,2013-05-13 23:30:00,
2013-05-13 19:00:00,44.5,29.8,29.98,SE,131,7.0,14.0,56,0.00,,---,0.00,VWS V14.01,2013-05-14 00:00:00,
2013-05-13 19:30:00,44.0,29.3,29.98,ESE,117,2.0,13.0,56,0.00,,---,0.00,VWS V14.01,2013-05-14 00:30:00,
2013-05-13 20:00:00,43.9,29.2,29.98,SE,140,1.0,10.0,56,0.00,,---,0.00,VWS V14.01,2013-05-14 01:00:00,
2013-05-13 20:30:00,44.0,30.2,29.99,ESE,121,0.0,7.0,58,0.00,,---,0.00,VWS V14.01,2013-05-14 01:30:00,
2013-05-13 21:00:00,44.1,30.7,29.98,SE,126,0.0,5.0,59,0.00,,---,0.00,VWS V14.01,2013-05-14 02:00:00,
2013-05-13 21:30:00,44.2,30.8,29.97,ESE,121,1.0,9.0,59,0.00,,---,0.00,VWS V14.01,2013-05-14 02:30:00,
2013-05-13 22:00:00,44.4,31.0,29.96,ESE,122,3.0,4.0,59,0.00,,---,0.00,VWS V14.01,2013-05-14 03:00:00,
2013-05-13 22:30:00,44.8,31.8,29.94,SE,142,2.0,6.0,60,0.00,,---,0.00,VWS V14.01,2013-05-14 03:30:00,
2013-05-13 23:00:00,45.0,32.0,29.92,SE,142,4.0,6.0,60,0.00,,---,0.00,VWS V14.01,2013-05-14 04:00:00,
2013-05-13 23:30:00,45.8,31.5,29.90,ESE,119,0.0,9.0,57,0.00,,---,0.00,VWS V14.01,2013-05-14 04:30:00,